createdAt,value
2019-04-16T00:01:58.588Z,98133.85
2019-04-16T00:24:26.818Z,98113.12
2019-04-16T00:32:38.804Z,98121.48
2019-04-16T00:35:10.156Z,98116.81
2019-04-16T00:37:40.604Z,98114.35
2019-04-16T00:40:29.873Z,98117.56
2019-04-16T00:43:03.108Z,98110.25
2019-04-16T00:46:12.656Z,98114.83
2019-04-16T00:49:01.961Z,98114.39
2019-04-16T00:51:32.201Z,98110.09
2019-04-16T00:54:21.502Z,98108.48
2019-04-16T00:56:51.738Z,98108.27
2019-04-16T00:59:41.375Z,98111.52
2019-04-16T01:02:16.932Z,98099.97
2019-04-16T01:05:06.658Z,98098.28
2019-04-16T01:07:55.983Z,98096.91
2019-04-16T01:10:27.227Z,98099.25
2019-04-16T01:13:16.515Z,98090.22
2019-04-16T01:16:07.105Z,98083.09
2019-04-16T01:18:56.423Z,98084.22
2019-04-16T01:21:27.070Z,98083.13
2019-04-16T01:24:17.615Z,98079.48
2019-04-16T01:26:59.476Z,98077.73
2019-04-16T01:29:33.562Z,98081.09
2019-04-16T01:32:43.401Z,98078.14
2019-04-16T01:35:32.947Z,98072.51
2019-04-16T01:38:41.149Z,98081.16
2019-04-16T01:41:30.847Z,98073.17
2019-04-16T01:44:20.152Z,98075.16
2019-04-16T01:47:09.738Z,98074.05
2019-04-16T01:49:42.212Z,98075.67
2019-04-16T01:52:12.150Z,98076.80
2019-04-16T01:54:42.836Z,98080.34
2019-04-16T01:57:32.159Z,98076.09
2019-04-16T02:00:06.967Z,98078.32
2019-04-16T02:02:34.615Z,98080.98
2019-04-16T02:05:05.353Z,98079.69
2019-04-16T02:07:59.265Z,98085.31
2019-04-16T02:10:49.522Z,98083.86
2019-04-16T02:13:19.810Z,98082.89
2019-04-16T02:16:09.145Z,98079.38
2019-04-16T02:19:00.963Z,98079.27
2019-04-16T02:21:49.774Z,98071.80
2019-04-16T02:24:39.042Z,98067.26
2019-04-16T02:27:23.510Z,98072.55
2019-04-16T02:30:05.904Z,98075.14
2019-04-16T02:32:36.363Z,98081.33
2019-04-16T02:35:25.791Z,98076.33
2019-04-16T02:38:15.168Z,98078.63
2019-04-16T02:40:51.619Z,98070.23
2019-04-16T02:43:41.020Z,98064.84
2019-04-16T02:46:34.360Z,98067.20
2019-04-16T02:49:16.097Z,98063.50
2019-04-16T02:52:24.269Z,98061.05
2019-04-16T02:55:44.175Z,98057.24
2019-04-16T03:01:31.792Z,98059.64
2019-04-16T03:07:18.188Z,98055.97
2019-04-16T03:10:00.604Z,98053.70
2019-04-16T03:12:42.150Z,98056.84
2019-04-16T03:15:51.670Z,98053.55
2019-04-16T03:18:47.541Z,98054.94
2019-04-16T03:21:17.895Z,98057.46
2019-04-16T03:24:09.679Z,98064.37
2019-04-16T03:26:44.082Z,98060.56
2019-04-16T03:29:32.805Z,98057.73
2019-04-16T03:32:03.122Z,98054.53
2019-04-16T03:34:34.164Z,98055.48
2019-04-16T03:37:23.454Z,98050.66
2019-04-16T03:39:53.778Z,98060.62
2019-04-16T03:45:44.052Z,98062.30
2019-04-16T03:48:56.174Z,98056.47
2019-04-16T03:54:42.027Z,98057.03
2019-04-16T03:57:39.360Z,98055.84
2019-04-16T04:00:28.963Z,97957.33
2019-04-16T04:02:59.581Z,98060.94
2019-04-16T04:05:35.153Z,98061.28
2019-04-16T04:08:04.512Z,98061.58
2019-04-16T04:10:37.113Z,98065.18
2019-04-16T04:13:25.886Z,98060.45
2019-04-16T04:15:58.543Z,98066.06
2019-04-16T04:18:28.348Z,98064.80
2019-04-16T04:21:27.249Z,98070.58
2019-04-16T04:24:16.527Z,98079.97
2019-04-16T04:27:13.075Z,98067.72
2019-04-16T04:29:58.865Z,98078.34
2019-04-16T04:32:29.215Z,98071.94
2019-04-16T04:34:59.806Z,98076.80
2019-04-16T04:37:49.113Z,98074.28
2019-04-16T04:40:19.438Z,98076.02
2019-04-16T04:42:50.086Z,98082.72
2019-04-16T04:45:21.850Z,98074.19
2019-04-16T04:47:52.372Z,98081.46
2019-04-16T04:50:23.982Z,98082.72
2019-04-16T04:52:54.288Z,98081.84
2019-04-16T04:55:26.907Z,98078.84
2019-04-16T04:57:57.049Z,98084.70
2019-04-16T05:00:27.320Z,98079.94
2019-04-16T05:03:38.546Z,98077.45
2019-04-16T05:06:30.874Z,98077.83
2019-04-16T05:09:01.483Z,98087.53
2019-04-16T05:11:32.156Z,98094.95
2019-04-16T05:14:02.433Z,98090.59
2019-04-16T05:16:52.178Z,98091.55
2019-04-16T05:19:22.491Z,98091.07
2019-04-16T05:21:54.970Z,98090.56
2019-04-16T05:24:29.201Z,98094.62
2019-04-16T05:27:10.277Z,98098.87
2019-04-16T05:29:40.656Z,98102.48
2019-04-16T05:32:11.308Z,98109.83
2019-04-16T05:34:41.809Z,98112.41
2019-04-16T05:37:12.435Z,98120.30
2019-04-16T05:39:42.964Z,98122.72
2019-04-16T05:42:13.642Z,98120.44
2019-04-16T05:45:17.184Z,98123.70
2019-04-16T05:47:34.972Z,98049.36
2019-04-16T05:50:06.303Z,98131.02
2019-04-16T05:52:36.946Z,98135.73
2019-04-16T05:58:03.927Z,98133.00
2019-04-16T06:01:13.679Z,98140.77
2019-04-16T06:03:44.123Z,98133.44
2019-04-16T06:06:18.755Z,98138.49
2019-04-16T06:08:50.633Z,98142.31
2019-04-16T06:11:46.098Z,98140.80
2019-04-16T06:14:35.575Z,98145.11
2019-04-16T06:17:31.783Z,98149.89
2019-04-16T06:20:40.911Z,98150.53
2019-04-16T06:23:49.318Z,98154.45
2019-04-16T06:26:39.487Z,98025.84
2019-04-16T06:29:29.475Z,98163.64
2019-04-16T06:32:37.681Z,98159.38
2019-04-16T06:35:45.891Z,98171.65
2019-04-16T06:38:30.386Z,98165.97
2019-04-16T06:41:42.154Z,98173.48
2019-04-16T06:47:24.372Z,98164.41
2019-04-16T06:50:03.812Z,98166.31
2019-04-16T06:52:53.140Z,98164.94
2019-04-16T06:55:46.308Z,98164.11
2019-04-16T06:58:57.434Z,98162.59
2019-04-16T07:02:10.549Z,98156.80
2019-04-16T07:05:10.680Z,98152.23
2019-04-16T07:08:18.360Z,98036.20
2019-04-16T07:11:07.981Z,98155.00
2019-04-16T07:13:42.192Z,98152.84
2019-04-16T07:19:16.543Z,98131.33
2019-04-16T07:21:57.823Z,98138.18
2019-04-16T07:30:43.892Z,98152.76
2019-04-16T07:36:41.309Z,98144.45
2019-04-16T07:39:59.458Z,98145.16
2019-04-16T07:46:47.133Z,98146.72
2019-04-16T07:49:59.068Z,98152.39
2019-04-16T07:53:05.141Z,98166.20
2019-04-16T07:55:54.419Z,98169.66
2019-04-16T07:58:44.023Z,98163.87
2019-04-16T08:01:33.402Z,98163.31
2019-04-16T08:04:29.055Z,98158.09
2019-04-16T08:07:34.832Z,98155.77
2019-04-16T08:10:06.899Z,98160.38
2019-04-16T08:15:33.622Z,98158.60
2019-04-16T08:18:08.786Z,98154.23
2019-04-16T08:21:01.689Z,98156.92
2019-04-16T08:27:10.886Z,98161.70
2019-04-16T08:30:02.132Z,98161.42
2019-04-16T08:35:45.436Z,98167.83
2019-04-16T08:38:15.720Z,98172.41
2019-04-16T08:41:05.572Z,98168.55
2019-04-16T08:47:24.953Z,98168.52
2019-04-16T08:49:55.303Z,98172.98
2019-04-16T08:52:25.632Z,98175.98
2019-04-16T08:55:35.966Z,98177.35
2019-04-16T08:58:07.575Z,98177.45
2019-04-16T09:00:38.900Z,98165.96
2019-04-16T09:03:30.702Z,98165.67
2019-04-16T09:06:04.615Z,98171.84
2019-04-16T09:08:54.878Z,98165.16
2019-04-16T09:12:10.257Z,98162.02
2019-04-16T09:14:56.007Z,98157.44
2019-04-16T09:18:21.695Z,98161.77
2019-04-16T09:21:11.679Z,98165.80
2019-04-16T09:24:19.917Z,98166.15
2019-04-16T09:29:52.393Z,98112.39
2019-04-16T09:36:11.831Z,98167.09
2019-04-16T09:39:20.465Z,98174.59
2019-04-16T09:41:52.477Z,98167.96
2019-04-16T09:45:05.180Z,98177.14
2019-04-16T09:48:06.172Z,98173.91
2019-04-16T09:50:47.598Z,98172.64
2019-04-16T09:53:40.045Z,98175.28
2019-04-16T09:56:44.974Z,98168.83
2019-04-16T09:59:34.166Z,98167.50
2019-04-16T10:02:21.350Z,98172.05
2019-04-16T10:05:10.747Z,98175.56
2019-04-16T10:07:44.379Z,98178.45
2019-04-16T10:10:33.796Z,98170.55
2019-04-16T10:13:31.771Z,98171.91
2019-04-16T10:15:56.966Z,98169.44
2019-04-16T10:21:59.037Z,98169.59
2019-04-16T10:25:10.188Z,98167.55
2019-04-16T10:27:43.087Z,98169.48
2019-04-16T10:30:42.124Z,98172.77
2019-04-16T10:33:32.791Z,98168.52
2019-04-16T10:36:24.595Z,98165.79
2019-04-16T10:42:46.092Z,98152.08
2019-04-16T10:46:09.694Z,98120.01
2019-04-16T10:48:45.166Z,98142.54
2019-04-16T10:51:53.418Z,98142.52
2019-04-16T10:55:02.056Z,98134.19
2019-04-16T10:58:10.297Z,98134.07
2019-04-16T11:00:59.872Z,98138.34
2019-04-16T11:03:40.966Z,98134.03
2019-04-16T11:06:38.003Z,98128.23
2019-04-16T11:09:23.751Z,98128.79
2019-04-16T11:12:04.875Z,98127.91
2019-04-16T11:14:35.489Z,98120.19
2019-04-16T11:20:50.851Z,98119.75
2019-04-16T11:23:56.169Z,98120.55
2019-04-16T11:26:34.359Z,98116.55
2019-04-16T11:29:15.802Z,98117.56
2019-04-16T11:32:05.625Z,98121.20
2019-04-16T11:35:18.724Z,98121.34
2019-04-16T11:37:50.184Z,98115.57
2019-04-16T11:40:42.259Z,98118.16
2019-04-16T11:43:32.887Z,98109.66
2019-04-16T11:46:22.284Z,98110.04
2019-04-16T11:49:11.609Z,98112.88
2019-04-16T11:51:42.118Z,98109.45
2019-04-16T11:54:31.835Z,98108.47
2019-04-16T11:57:21.205Z,98115.08
2019-04-16T12:00:13.909Z,98108.13
2019-04-16T12:03:22.116Z,98113.19
2019-04-16T12:06:31.275Z,98110.87
2019-04-16T12:09:41.943Z,98107.42
2019-04-16T12:12:18.064Z,98108.41
2019-04-16T12:15:16.283Z,98103.89
2019-04-16T12:22:17.656Z,98106.25
2019-04-16T12:28:47.763Z,98112.41
2019-04-16T12:31:48.714Z,98113.44
2019-04-16T12:34:52.373Z,98120.94
2019-04-16T12:38:18.173Z,98123.36
2019-04-16T12:41:27.379Z,98125.23
2019-04-16T12:44:45.186Z,98131.48
2019-04-16T12:47:47.598Z,98128.44
2019-04-16T12:50:56.147Z,98124.66
2019-04-16T12:54:06.102Z,98052.34
2019-04-16T12:56:55.437Z,98124.44
2019-04-16T13:00:03.604Z,98133.16
2019-04-16T13:03:16.456Z,98140.83
2019-04-16T13:06:14.134Z,98138.36
2019-04-16T13:12:17.122Z,98140.41
2019-04-16T13:15:23.733Z,98154.48
2019-04-16T13:18:27.683Z,98153.12
2019-04-16T13:21:16.882Z,98144.13
2019-04-16T13:24:25.076Z,98153.42
2019-04-16T13:27:14.351Z,98045.03
2019-04-16T13:29:44.754Z,98149.78
2019-04-16T13:32:41.388Z,98155.28
2019-04-16T13:41:41.117Z,98161.62
2019-04-16T13:44:11.963Z,98156.47
2019-04-16T13:46:44.461Z,98154.80
2019-04-16T13:49:33.598Z,98149.55
2019-04-16T13:52:08.135Z,98148.78
2019-04-16T13:54:57.732Z,98149.13
2019-04-16T13:57:30.413Z,98156.27
2019-04-16T14:00:42.774Z,98147.03
2019-04-16T14:03:33.310Z,98147.50
2019-04-16T14:09:59.206Z,98147.58
2019-04-16T14:12:48.825Z,98135.78
2019-04-16T14:15:31.716Z,98027.81
2019-04-16T14:17:56.423Z,98145.94
2019-04-16T14:20:27.039Z,98141.98
2019-04-16T14:23:19.709Z,98143.77
2019-04-16T14:26:10.886Z,98074.31
2019-04-16T14:32:14.805Z,98168.09
2019-04-16T14:35:06.002Z,98164.45
2019-04-16T14:37:36.447Z,98165.58
2019-04-16T14:40:27.192Z,98165.89
2019-04-16T14:43:29.404Z,98165.80
2019-04-16T14:46:00.607Z,98162.86
2019-04-16T14:48:31.825Z,98164.38
2019-04-16T14:51:23.004Z,98148.84
2019-04-16T14:54:31.241Z,98150.44
2019-04-16T14:57:20.886Z,98149.16
2019-04-16T15:00:31.246Z,98149.63
2019-04-16T15:03:34.856Z,98142.53
2019-04-16T15:06:17.039Z,98148.30
2019-04-16T15:09:28.223Z,98144.22
2019-04-16T15:12:26.584Z,98144.23
2019-04-16T15:15:15.735Z,98139.70
2019-04-16T15:18:26.710Z,98138.58
2019-04-16T15:21:33.763Z,98059.47
2019-04-16T15:24:41.933Z,98139.89
2019-04-16T15:27:31.612Z,98141.47
2019-04-16T15:30:21.314Z,98139.86
2019-04-16T15:33:11.961Z,98143.48
2019-04-16T15:39:21.823Z,98113.70
2019-04-16T15:42:30.020Z,98154.83
2019-04-16T15:45:25.511Z,98154.77
2019-04-16T15:48:37.408Z,98158.91
2019-04-16T15:51:34.925Z,98168.33
2019-04-16T15:54:24.203Z,98177.49
2019-04-16T15:57:32.658Z,98186.71
2019-04-16T16:00:20.734Z,98181.27
2019-04-16T16:03:29.204Z,98188.45
2019-04-16T16:06:22.224Z,98188.39
2019-04-16T16:09:47.967Z,98192.38
2019-04-16T16:12:24.874Z,98196.45
2019-04-16T16:15:16.599Z,98191.75
2019-04-16T16:18:24.817Z,98194.28
2019-04-16T16:21:14.326Z,98194.35
2019-04-16T16:24:07.975Z,98202.49
2019-04-16T16:26:49.089Z,98205.09
2019-04-16T16:29:38.667Z,98204.70
2019-04-16T16:32:18.865Z,98209.36
2019-04-16T16:35:08.529Z,98208.55
2019-04-16T16:37:58.154Z,98205.25
2019-04-16T16:41:11.516Z,98206.85
2019-04-16T16:47:28.337Z,98204.41
2019-04-16T16:50:02.396Z,98208.53
2019-04-16T16:53:19.785Z,98206.84
2019-04-16T16:56:51.015Z,98206.16
2019-04-16T17:00:20.765Z,98213.70
2019-04-16T17:02:56.229Z,98211.81
2019-04-16T17:05:45.860Z,98213.12
2019-04-16T17:08:16.292Z,98212.06
2019-04-16T17:11:16.312Z,98212.80
2019-04-16T17:13:58.037Z,98218.56
2019-04-16T17:16:52.115Z,98217.73
2019-04-16T17:19:22.408Z,98214.76
2019-04-16T17:21:52.731Z,98214.75
2019-04-16T17:24:23.446Z,98219.09
2019-04-16T17:26:53.774Z,98216.23
2019-04-16T17:29:24.650Z,98216.47
2019-04-16T17:32:13.764Z,98219.20
2019-04-16T17:34:47.834Z,98219.34
2019-04-16T17:37:41.537Z,98217.41
2019-04-16T17:40:38.018Z,98222.45
2019-04-16T17:43:59.703Z,98227.47
2019-04-16T17:46:58.220Z,98225.43
2019-04-16T17:49:53.495Z,98231.67
2019-04-16T17:56:01.894Z,98243.16
2019-04-16T17:58:57.144Z,98248.43
2019-04-16T18:02:05.407Z,98254.78
2019-04-16T18:04:56.201Z,98256.47
2019-04-16T18:08:05.591Z,98262.08
2019-04-16T18:10:58.673Z,98265.09
2019-04-16T18:13:48.983Z,98265.61
2019-04-16T18:16:49.990Z,98272.36
2019-04-16T18:19:58.558Z,98273.63
2019-04-16T18:22:47.969Z,98277.43
2019-04-16T18:26:03.047Z,98293.84
2019-04-16T18:29:15.530Z,98293.67
2019-04-16T18:32:41.444Z,98253.81
2019-04-16T18:35:51.891Z,98302.92
2019-04-16T18:39:22.463Z,98309.75
2019-04-16T18:42:22.265Z,98318.39
2019-04-16T18:45:08.964Z,98320.67
2019-04-16T18:48:04.530Z,98322.63
2019-04-16T18:51:01.969Z,98325.69
2019-04-16T18:53:36.329Z,98328.19
2019-04-16T18:56:29.639Z,98326.13
2019-04-16T18:59:56.217Z,98336.18
2019-04-16T19:02:28.941Z,98332.42
2019-04-16T19:05:40.370Z,98333.33
2019-04-16T19:08:41.702Z,98339.87
2019-04-16T19:11:28.825Z,98336.38
2019-04-16T19:14:37.228Z,98349.02
2019-04-16T19:17:35.511Z,98346.14
2019-04-16T19:20:33.632Z,98349.52
2019-04-16T19:23:30.930Z,98360.27
2019-04-16T19:26:14.458Z,98367.90
2019-04-16T19:29:42.826Z,98357.06
2019-04-16T19:35:26.073Z,98362.24
2019-04-16T19:38:15.739Z,98378.10
2019-04-16T19:41:12.521Z,98378.83
2019-04-16T19:44:06.385Z,98381.84
2019-04-16T19:49:56.439Z,98372.09
2019-04-16T19:56:27.454Z,98376.48
2019-04-16T20:03:09.309Z,98378.86
2019-04-16T20:06:26.615Z,98297.53
2019-04-16T20:13:09.733Z,98377.22
2019-04-16T20:16:16.616Z,98377.19
2019-04-16T20:21:37.704Z,98378.41
2019-04-16T20:24:20.570Z,98382.20
2019-04-16T20:27:24.123Z,98390.55
2019-04-16T20:29:45.765Z,98396.06
2019-04-16T20:32:34.141Z,98394.41
2019-04-16T20:35:02.871Z,98392.13
2019-04-16T20:37:55.938Z,98393.06
2019-04-16T20:40:30.136Z,98393.17
2019-04-16T20:43:03.795Z,98392.91
2019-04-16T20:45:59.201Z,98401.13
2019-04-16T20:49:08.792Z,98400.95
2019-04-16T20:55:23.776Z,98403.91
2019-04-16T21:04:12.917Z,98405.98
2019-04-16T21:06:44.217Z,98405.04
2019-04-16T21:09:30.014Z,98404.03
2019-04-16T21:12:26.716Z,98401.06
2019-04-16T21:15:17.043Z,98401.71
2019-04-16T21:17:50.787Z,98401.91
2019-04-16T21:26:26.026Z,98404.83
2019-04-16T21:29:23.405Z,98409.22
2019-04-16T21:32:09.684Z,98405.09
2019-04-16T21:35:00.927Z,98407.36
2019-04-16T21:37:50.453Z,98413.08
2019-04-16T21:40:39.936Z,98421.96
2019-04-16T21:43:35.729Z,98427.85
2019-04-16T21:46:26.396Z,98422.53
2019-04-16T21:49:20.560Z,98427.66
2019-04-16T21:55:05.058Z,98434.30
2019-04-16T21:58:03.597Z,98427.94
2019-04-16T22:09:59.049Z,98426.70
2019-04-16T22:12:31.982Z,98427.33
2019-04-16T22:15:25.499Z,98431.89
2019-04-16T22:21:25.526Z,98434.47
2019-04-16T22:26:55.490Z,98435.75
2019-04-16T22:29:26.127Z,98446.13
2019-04-16T22:31:59.041Z,98447.14
2019-04-16T22:38:13.247Z,98443.96
2019-04-16T22:41:16.872Z,98452.20
2019-04-16T22:44:02.608Z,98454.05
2019-04-16T22:47:03.123Z,98455.31
2019-04-16T22:49:35.350Z,98453.83
2019-04-16T22:54:55.717Z,98459.42
2019-04-16T22:57:27.101Z,98458.67
2019-04-16T22:59:57.463Z,98459.06
2019-04-16T23:02:31.046Z,98457.72
2019-04-16T23:05:01.651Z,98462.37
2019-04-16T23:10:50.591Z,98465.23
2019-04-16T23:13:20.608Z,98468.74
2019-04-16T23:15:51.234Z,98463.13
2019-04-16T23:18:40.604Z,98469.87
2019-04-16T23:21:35.663Z,98470.23
2019-04-16T23:24:25.397Z,98470.91
2019-04-16T23:27:04.125Z,98393.84
2019-04-16T23:29:32.011Z,98473.80
2019-04-16T23:32:12.752Z,98471.72
2019-04-16T23:35:24.965Z,98472.67
2019-04-16T23:38:15.764Z,98469.94
2019-04-16T23:41:05.643Z,98477.05
2019-04-16T23:44:05.776Z,98479.09
2019-04-16T23:49:53.387Z,98475.97
2019-04-16T23:53:03.769Z,98484.91
2019-04-16T23:55:56.074Z,98482.69
2019-04-16T23:58:30.334Z,98484.22
